createdAt,value
2018-08-25T00:04:51.175Z,100578.10
2018-08-25T00:09:45.660Z,100572.89
2018-08-25T00:14:40.554Z,100554.80
2018-08-25T00:19:35.039Z,100547.64
2018-08-25T00:24:29.729Z,100538.06
2018-08-25T00:29:24.350Z,100535.87
2018-08-25T00:34:18.832Z,100532.86
2018-08-25T00:39:13.373Z,100526.30
2018-08-25T00:44:07.960Z,100513.42
2018-08-25T00:49:02.480Z,100511.61
2018-08-25T00:53:57.000Z,100509.16
2018-08-25T00:58:51.524Z,100505.50
2018-08-25T01:03:46.044Z,100506.56
2018-08-25T01:08:40.578Z,100492.59
2018-08-25T01:13:35.058Z,100484.58
2018-08-25T01:18:29.695Z,100483.72
2018-08-25T01:23:24.301Z,100478.03
2018-08-25T01:28:18.999Z,100480.70
2018-08-25T01:33:13.488Z,100476.70
2018-08-25T01:38:07.953Z,100460.05
2018-08-25T01:43:02.515Z,100449.50
2018-08-25T01:47:57.232Z,100447.30
2018-08-25T01:52:51.692Z,100443.09
2018-08-25T01:57:46.192Z,100423.52
2018-08-25T02:02:40.742Z,100431.89
2018-08-25T02:07:35.656Z,100428.26
2018-08-25T02:12:30.406Z,100417.91
2018-08-25T02:17:24.924Z,100412.70
2018-08-25T02:22:19.395Z,100407.02
2018-08-25T02:27:13.888Z,100400.81
2018-08-25T02:32:08.374Z,100396.94
2018-08-25T02:37:02.880Z,100396.59
2018-08-25T02:41:57.648Z,100390.67
2018-08-25T02:46:52.089Z,100388.75
2018-08-25T02:51:46.554Z,100388.53
2018-08-25T02:56:41.144Z,100391.95
2018-08-25T03:01:35.776Z,100392.63
2018-08-25T03:06:30.276Z,100393.27
2018-08-25T03:11:24.958Z,100402.21
2018-08-25T03:16:19.726Z,100394.61
2018-08-25T03:21:14.516Z,100389.84
2018-08-25T03:26:09.038Z,100382.37
2018-08-25T03:31:03.563Z,100374.67
2018-08-25T03:35:58.350Z,100372.65
2018-08-25T03:40:53.028Z,100371.92
2018-08-25T03:45:47.502Z,100367.97
2018-08-25T03:50:41.984Z,100363.75
2018-08-25T03:55:36.479Z,100370.45
2018-08-25T04:00:31.146Z,100363.78
2018-08-25T04:05:25.651Z,100367.41
2018-08-25T04:10:20.512Z,100361.25
2018-08-25T04:15:14.998Z,100363.56
2018-08-25T04:20:09.494Z,100354.52
2018-08-25T04:25:04.157Z,100362.05
2018-08-25T04:29:58.648Z,100368.73
2018-08-25T04:34:53.194Z,100375.63
2018-08-25T04:39:47.608Z,100377.72
2018-08-25T04:44:42.078Z,100387.39
2018-08-25T04:49:36.559Z,100384.34
2018-08-25T04:54:31.065Z,100382.72
2018-08-25T04:59:25.531Z,100399.52
2018-08-25T05:04:20.040Z,100406.77
2018-08-25T05:09:14.532Z,100408.92
2018-08-25T05:14:09.024Z,100415.54
2018-08-25T05:19:03.540Z,100419.17
2018-08-25T05:23:58.030Z,100427.27
2018-08-25T05:28:52.547Z,100417.50
2018-08-25T05:33:47.097Z,100425.98
2018-08-25T05:38:41.644Z,100433.97
2018-08-25T05:43:36.161Z,100436.55
2018-08-25T05:48:30.952Z,100437.46
2018-08-25T05:53:25.785Z,100445.92
2018-08-25T05:58:20.284Z,100443.28
2018-08-25T06:03:14.768Z,100450.05
2018-08-25T06:08:09.486Z,100455.61
2018-08-25T06:13:04.297Z,100464.25
2018-08-25T06:17:58.853Z,100465.12
2018-08-25T06:22:53.342Z,100474.34
2018-08-25T06:27:47.835Z,100481.59
2018-08-25T06:32:42.371Z,100483.58
2018-08-25T06:37:36.871Z,100487.78
2018-08-25T06:42:31.519Z,100490.44
2018-08-25T06:47:26.412Z,100473.14
2018-08-25T06:52:20.923Z,100487.68
2018-08-25T06:57:15.570Z,100503.50
2018-08-25T07:02:10.209Z,100503.66
2018-08-25T07:07:04.816Z,100505.45
2018-08-25T07:11:59.834Z,100504.78
2018-08-25T07:16:54.291Z,100500.36
2018-08-25T07:21:48.955Z,100499.84
2018-08-25T07:26:43.449Z,100502.73
2018-08-25T07:31:38.150Z,100521.28
2018-08-25T07:36:32.657Z,100514.83
2018-08-25T07:41:28.397Z,100509.47
2018-08-25T07:46:22.910Z,100522.95
2018-08-25T07:51:17.430Z,100528.55
2018-08-25T07:56:12.010Z,100532.08
2018-08-25T08:01:06.866Z,100528.81
2018-08-25T08:06:01.536Z,100528.98
2018-08-25T08:10:56.042Z,100534.31
2018-08-25T08:15:50.650Z,100532.37
2018-08-25T08:20:45.336Z,100539.87
2018-08-25T08:25:39.953Z,100539.02
2018-08-25T08:30:34.554Z,100547.05
2018-08-25T08:35:29.168Z,100542.36
2018-08-25T08:40:23.769Z,100545.96
2018-08-25T08:45:18.553Z,100551.18
2018-08-25T08:50:13.813Z,100555.56
2018-08-25T08:55:09.140Z,100559.33
2018-08-25T09:00:04.074Z,100561.84
2018-08-25T09:04:59.133Z,100565.66
2018-08-25T09:09:53.898Z,100569.74
2018-08-25T09:14:48.914Z,100572.05
2018-08-25T09:19:43.806Z,100577.77
2018-08-25T09:24:38.572Z,100584.67
2018-08-25T09:29:33.536Z,100575.89
2018-08-25T09:34:28.321Z,100584.50
2018-08-25T09:39:23.081Z,100584.93
2018-08-25T09:44:18.152Z,100582.53
2018-08-25T09:49:13.182Z,100591.81
2018-08-25T09:54:08.186Z,100592.83
2018-08-25T09:59:03.435Z,100590.55
2018-08-25T10:03:58.605Z,100601.22
2018-08-25T10:08:53.553Z,100592.09
2018-08-25T10:13:48.304Z,100608.66
2018-08-25T10:18:42.892Z,100599.69
2018-08-25T10:23:37.710Z,100603.19
2018-08-25T10:28:32.339Z,100610.22
2018-08-25T10:33:26.949Z,100616.92
2018-08-25T10:38:22.301Z,100616.45
2018-08-25T10:43:16.842Z,100624.02
2018-08-25T10:48:11.666Z,100616.42
2018-08-25T10:53:06.644Z,100614.89
2018-08-25T10:58:01.412Z,100613.91
2018-08-25T11:02:55.878Z,100619.98
2018-08-25T11:07:50.534Z,100612.19
2018-08-25T11:12:44.992Z,100614.38
2018-08-25T11:17:39.449Z,100615.58
2018-08-25T11:22:34.374Z,100627.52
2018-08-25T11:27:29.391Z,100627.50
2018-08-25T11:32:23.936Z,100629.55
2018-08-25T11:37:18.581Z,100639.39
2018-08-25T11:42:13.428Z,100629.70
2018-08-25T11:47:14.264Z,100630.75
2018-08-25T11:52:09.178Z,100633.84
2018-08-25T11:57:03.847Z,100626.09
2018-08-25T12:01:58.374Z,100625.52
2018-08-25T12:06:52.920Z,100625.70
2018-08-25T12:11:47.732Z,100619.63
2018-08-25T12:16:42.388Z,100617.23
2018-08-25T12:21:36.887Z,100620.25
2018-08-25T12:26:31.434Z,100610.92
2018-08-25T12:31:26.130Z,100618.42
2018-08-25T12:36:20.777Z,100633.56
2018-08-25T12:41:15.281Z,100666.20
2018-08-25T12:46:09.725Z,100690.57
2018-08-25T12:51:04.205Z,100694.95
2018-08-25T12:55:58.695Z,100693.23
2018-08-25T13:00:53.718Z,100685.77
2018-08-25T13:05:48.226Z,100689.75
2018-08-25T13:10:42.805Z,100696.84
2018-08-25T13:15:37.461Z,100691.78
2018-08-25T13:20:32.130Z,100689.02
2018-08-25T13:25:26.759Z,100693.56
2018-08-25T13:30:21.262Z,100690.66
2018-08-25T13:35:15.800Z,100693.04
2018-08-25T13:40:11.000Z,100693.15
2018-08-25T13:45:05.449Z,100693.09
2018-08-25T13:50:00.098Z,100693.27
2018-08-25T13:54:55.311Z,100704.61
2018-08-25T13:59:50.172Z,100716.38
2018-08-25T14:04:44.963Z,100719.41
2018-08-25T14:09:39.445Z,100724.00
2018-08-25T14:14:34.055Z,100737.97
2018-08-25T14:19:28.502Z,100728.60
2018-08-25T14:24:22.976Z,100723.39
2018-08-25T14:29:17.892Z,100721.66
2018-08-25T14:34:12.998Z,100710.20
2018-08-25T14:39:09.985Z,100710.01
2018-08-25T14:44:05.183Z,100718.02
2018-08-25T14:48:59.854Z,100734.09
2018-08-25T14:53:54.588Z,100734.98
2018-08-25T14:58:49.313Z,100762.18
2018-08-25T15:03:43.850Z,100778.78
2018-08-25T15:08:38.413Z,100782.91
2018-08-25T15:13:34.945Z,100785.79
2018-08-25T15:18:29.812Z,100784.66
2018-08-25T15:23:24.423Z,100789.00
2018-08-25T15:28:18.957Z,100784.64
2018-08-25T15:33:13.630Z,100790.67
2018-08-25T15:38:08.154Z,100796.40
2018-08-25T15:43:02.865Z,100808.58
2018-08-25T15:47:57.612Z,100811.17
2018-08-25T15:52:52.501Z,100816.45
2018-08-25T15:57:47.228Z,100813.91
2018-08-25T16:02:41.927Z,100814.42
2018-08-25T16:07:36.920Z,100815.45
2018-08-25T16:12:31.691Z,100823.77
2018-08-25T16:17:26.525Z,100834.97
2018-08-25T16:22:21.048Z,100830.84
2018-08-25T16:27:15.677Z,100828.16
2018-08-25T16:32:10.200Z,100832.27
2018-08-25T16:37:04.866Z,100836.56
2018-08-25T16:41:59.343Z,100840.03
2018-08-25T16:46:54.271Z,100841.54
2018-08-25T16:51:48.696Z,100839.95
2018-08-25T16:56:43.173Z,100839.17
2018-08-25T17:01:37.763Z,100841.78
2018-08-25T17:06:32.790Z,100846.09
2018-08-25T17:11:27.328Z,100845.44
2018-08-25T17:16:22.175Z,100853.47
2018-08-25T17:21:16.740Z,100860.39
2018-08-25T17:26:11.530Z,100864.02
2018-08-25T17:31:06.198Z,100863.83
2018-08-25T17:36:01.484Z,100879.93
2018-08-25T17:40:56.165Z,100874.84
2018-08-25T17:45:50.602Z,100884.32
2018-08-25T17:50:45.090Z,100888.64
2018-08-25T17:55:39.528Z,100891.52
2018-08-25T18:00:34.048Z,100898.32
2018-08-25T18:05:28.722Z,100900.96
2018-08-25T18:10:23.237Z,100901.44
2018-08-25T18:15:17.771Z,100908.23
2018-08-25T18:20:12.496Z,100916.19
2018-08-25T18:25:06.955Z,100918.05
2018-08-25T18:30:01.977Z,100931.63
2018-08-25T18:34:56.976Z,100931.85
2018-08-25T18:39:51.496Z,100944.44
2018-08-25T18:44:46.509Z,100950.00
2018-08-25T18:49:41.160Z,100949.84
2018-08-25T18:54:35.793Z,100955.67
2018-08-25T18:59:30.521Z,100961.14
2018-08-25T19:04:25.080Z,100970.23
2018-08-25T19:09:19.576Z,100973.50
2018-08-25T19:14:14.101Z,100983.27
2018-08-25T19:19:08.791Z,100988.95
2018-08-25T19:24:03.607Z,100991.58
2018-08-25T19:28:58.237Z,100993.42
2018-08-25T19:33:53.178Z,100987.13
2018-08-25T19:38:47.646Z,100992.86
2018-08-25T19:43:42.146Z,101000.66
2018-08-25T19:48:37.178Z,100999.56
2018-08-25T19:53:31.659Z,101007.89
2018-08-25T19:58:26.132Z,101018.25
2018-08-25T20:03:20.632Z,101020.98
2018-08-25T20:08:15.305Z,101026.42
2018-08-25T20:13:10.285Z,101033.14
2018-08-25T20:18:04.786Z,101039.70
2018-08-25T20:22:59.462Z,101043.19
2018-08-25T20:27:54.088Z,101044.41
2018-08-25T20:32:48.832Z,101048.20
2018-08-25T20:37:43.390Z,101051.23
2018-08-25T20:42:37.920Z,101063.05
2018-08-25T20:47:32.957Z,101062.47
2018-08-25T20:52:27.509Z,101070.34
2018-08-25T20:57:22.065Z,101068.82
2018-08-25T21:02:16.645Z,101075.23
2018-08-25T21:07:11.331Z,101068.97
2018-08-25T21:12:05.783Z,101074.08
2018-08-25T21:17:00.324Z,101077.47
2018-08-25T21:21:54.931Z,101074.22
2018-08-25T21:26:49.736Z,101081.98
2018-08-25T21:31:44.228Z,101087.06
2018-08-25T21:36:38.965Z,101086.38
2018-08-25T21:41:33.776Z,101090.63
2018-08-25T21:46:28.660Z,101093.45
2018-08-25T21:51:23.140Z,101081.31
2018-08-25T21:56:17.605Z,101088.64
2018-08-25T22:01:12.263Z,101084.55
2018-08-25T22:06:07.204Z,101084.41
2018-08-25T22:11:01.862Z,101087.69
2018-08-25T22:15:56.328Z,101084.06
2018-08-25T22:20:50.877Z,101083.00
2018-08-25T22:25:45.628Z,101088.18
2018-08-25T22:30:40.148Z,101090.52
2018-08-25T22:35:34.593Z,101098.46
2018-08-25T22:40:29.110Z,101101.86
2018-08-25T22:45:23.610Z,101105.59
2018-08-25T22:50:18.112Z,101106.63
2018-08-25T22:55:12.581Z,101099.06
2018-08-25T23:00:07.087Z,101103.81
2018-08-25T23:05:03.932Z,101106.47
2018-08-25T23:09:58.387Z,101110.44
2018-08-25T23:14:52.861Z,101115.28
2018-08-25T23:19:47.280Z,101120.72
2018-08-25T23:24:42.006Z,101118.31
2018-08-25T23:29:36.476Z,101114.52
2018-08-25T23:34:31.080Z,101110.41
2018-08-25T23:39:25.552Z,101112.82
2018-08-25T23:44:20.067Z,101117.45
2018-08-25T23:49:14.802Z,101117.12
2018-08-25T23:54:09.339Z,101121.52
2018-08-25T23:59:04.076Z,101125.36
